createdAt,value
2018-03-04T00:00:56.916Z,95470.21
2018-03-04T00:03:22.958Z,95473.83
2018-03-04T00:05:48.993Z,95473.69
2018-03-04T00:08:15.082Z,95478.47
2018-03-04T00:10:41.170Z,95470.98
2018-03-04T00:13:07.190Z,95478.73
2018-03-04T00:15:33.251Z,95485.44
2018-03-04T00:17:59.298Z,95485.56
2018-03-04T00:20:25.358Z,95479.52
2018-03-04T00:22:51.400Z,95480.80
2018-03-04T00:25:17.416Z,95484.14
2018-03-04T00:27:50.511Z,95480.66
2018-03-04T00:30:16.525Z,95481.70
2018-03-04T00:32:42.581Z,95494.75
2018-03-04T00:35:08.577Z,95489.45
2018-03-04T00:37:34.600Z,95497.20
2018-03-04T00:40:00.622Z,95492.43
2018-03-04T00:42:26.649Z,95491.38
2018-03-04T00:44:52.669Z,95501.20
2018-03-04T00:47:18.700Z,95496.69
2018-03-04T00:49:44.837Z,95497.84
2018-03-04T00:52:10.891Z,95497.46
2018-03-04T00:54:36.889Z,95496.16
2018-03-04T00:57:02.959Z,95498.88
2018-03-04T00:59:29.053Z,95492.56
2018-03-04T01:01:55.095Z,95497.70
2018-03-04T01:04:21.125Z,95497.85
2018-03-04T01:06:47.150Z,95499.38
2018-03-04T01:09:13.214Z,95491.75
2018-03-04T01:11:39.296Z,95499.02
2018-03-04T01:14:05.404Z,95498.88
2018-03-04T01:16:31.401Z,95495.40
2018-03-04T01:18:57.418Z,95494.74
2018-03-04T01:21:23.405Z,95491.00
2018-03-04T01:23:49.517Z,95496.70
2018-03-04T01:26:22.442Z,95491.39
2018-03-04T01:28:48.433Z,95494.60
2018-03-04T01:31:14.450Z,95498.34
2018-03-04T01:33:40.450Z,95500.83
2018-03-04T01:36:06.465Z,95504.70
2018-03-04T01:38:32.416Z,95503.78
2018-03-04T01:40:58.452Z,95505.23
2018-03-04T01:43:24.484Z,95503.27
2018-03-04T01:45:50.536Z,95508.31
2018-03-04T01:48:16.565Z,95510.38
2018-03-04T01:50:42.588Z,95509.59
2018-03-04T01:53:08.573Z,95510.75
2018-03-04T01:55:34.614Z,95513.59
2018-03-04T01:58:00.678Z,95520.20
2018-03-04T02:00:26.673Z,95514.38
2018-03-04T02:02:52.764Z,95511.80
2018-03-04T02:05:18.766Z,95519.41
2018-03-04T02:07:44.791Z,95521.74
2018-03-04T02:10:10.812Z,95524.22
2018-03-04T02:12:36.819Z,95522.14
2018-03-04T02:15:03.429Z,95523.16
2018-03-04T02:17:29.490Z,95524.07
2018-03-04T02:19:55.525Z,95526.39
2018-03-04T02:22:21.565Z,95538.41
2018-03-04T02:24:47.624Z,95537.79
2018-03-04T02:27:13.722Z,95532.74
2018-03-04T02:29:39.745Z,95528.22
2018-03-04T02:32:05.803Z,95535.20
2018-03-04T02:34:31.847Z,95529.37
2018-03-04T02:36:57.862Z,95534.02
2018-03-04T02:39:23.831Z,95529.25
2018-03-04T02:41:49.849Z,95534.29
2018-03-04T02:44:15.906Z,95534.69
2018-03-04T02:46:41.958Z,95533.52
2018-03-04T02:49:07.975Z,95536.75
2018-03-04T02:51:33.975Z,95539.45
2018-03-04T02:53:59.976Z,95538.82
2018-03-04T02:56:26.006Z,95536.61
2018-03-04T02:58:52.009Z,95540.22
2018-03-04T03:01:18.105Z,95539.19
2018-03-04T03:03:44.073Z,95540.37
2018-03-04T03:06:10.073Z,95538.69
2018-03-04T03:08:36.073Z,95541.27
2018-03-04T03:11:02.035Z,95537.41
2018-03-04T03:13:28.084Z,95537.92
2018-03-04T03:15:54.030Z,95537.40
2018-03-04T03:18:20.022Z,95543.20
2018-03-04T03:20:46.057Z,95539.08
2018-03-04T03:23:12.032Z,95536.73
2018-03-04T03:25:38.092Z,95533.91
2018-03-04T03:28:04.124Z,95533.78
2018-03-04T03:30:30.125Z,95535.33
2018-03-04T03:32:56.129Z,95537.01
2018-03-04T03:35:22.202Z,95533.00
2018-03-04T03:37:48.210Z,95533.27
2018-03-04T03:40:14.221Z,95528.09
2018-03-04T03:42:40.177Z,95531.45
2018-03-04T03:45:06.194Z,95532.63
2018-03-04T03:47:32.214Z,95525.38
2018-03-04T03:49:58.191Z,95521.23
2018-03-04T03:52:24.218Z,95519.55
2018-03-04T03:54:50.298Z,95518.39
2018-03-04T03:57:16.300Z,95525.12
2018-03-04T03:59:42.338Z,95516.31
2018-03-04T04:02:08.418Z,95512.31
2018-03-04T04:04:34.409Z,95523.83
2018-03-04T04:07:00.465Z,95516.06
2018-03-04T04:09:26.507Z,95515.94
2018-03-04T04:11:52.482Z,95515.42
2018-03-04T04:14:18.503Z,95516.06
2018-03-04T04:16:44.676Z,95516.45
2018-03-04T04:19:10.685Z,95525.50
2018-03-04T04:21:36.798Z,95517.22
2018-03-04T04:24:02.805Z,95518.02
2018-03-04T04:26:29.031Z,95526.53
2018-03-04T04:28:55.155Z,95523.95
2018-03-04T04:31:21.178Z,95527.81
2018-03-04T04:33:47.217Z,95529.77
2018-03-04T04:36:13.238Z,95520.84
2018-03-04T04:38:39.245Z,95521.35
2018-03-04T04:41:05.306Z,95516.20
2018-03-04T04:43:31.353Z,95507.40
2018-03-04T04:45:57.457Z,95510.51
2018-03-04T04:48:23.537Z,95516.97
2018-03-04T04:50:49.591Z,95515.94
2018-03-04T04:53:15.621Z,95510.52
2018-03-04T04:55:41.645Z,95507.66
2018-03-04T04:58:07.662Z,95514.26
2018-03-04T05:00:33.812Z,95511.56
2018-03-04T05:02:59.908Z,95512.18
2018-03-04T05:05:25.899Z,95508.83
2018-03-04T05:07:52.030Z,95528.71
2018-03-04T05:10:18.026Z,95521.36
2018-03-04T05:12:44.042Z,95517.59
2018-03-04T05:15:10.174Z,95515.55
2018-03-04T05:17:36.166Z,95517.23
2018-03-04T05:20:02.235Z,95519.41
2018-03-04T05:22:28.239Z,95510.26
2018-03-04T05:24:54.254Z,95515.27
2018-03-04T05:27:20.238Z,95522.16
2018-03-04T05:29:46.212Z,95522.65
2018-03-04T05:32:12.293Z,95520.46
2018-03-04T05:34:38.292Z,95519.03
2018-03-04T05:37:04.310Z,95526.91
2018-03-04T05:39:30.318Z,95522.79
2018-03-04T05:41:56.324Z,95511.42
2018-03-04T05:44:22.322Z,95512.82
2018-03-04T05:46:48.392Z,95521.73
2018-03-04T05:49:14.390Z,95527.30
2018-03-04T05:51:40.422Z,95530.14
2018-03-04T05:54:06.550Z,95527.17
2018-03-04T05:56:32.584Z,95529.25
2018-03-04T05:58:58.653Z,95529.88
2018-03-04T06:01:24.736Z,95532.85
2018-03-04T06:03:50.736Z,95531.45
2018-03-04T06:06:16.805Z,95531.42
2018-03-04T06:08:43.701Z,95533.89
2018-03-04T06:11:09.809Z,95531.32
2018-03-04T06:13:35.797Z,95537.63
2018-03-04T06:16:01.916Z,95530.67
2018-03-04T06:18:27.950Z,95517.48
2018-03-04T06:20:53.950Z,95519.03
2018-03-04T06:23:19.968Z,95514.13
2018-03-04T06:25:45.988Z,95512.05
2018-03-04T06:28:12.010Z,95514.50
2018-03-04T06:30:38.002Z,95516.82
2018-03-04T06:33:04.114Z,95516.96
2018-03-04T06:35:30.093Z,95510.38
2018-03-04T06:37:56.188Z,95516.05
2018-03-04T06:40:22.229Z,95526.39
2018-03-04T06:42:48.218Z,95531.12
2018-03-04T06:45:14.179Z,95524.30
2018-03-04T06:47:40.242Z,95523.37
2018-03-04T06:50:06.429Z,95523.87
2018-03-04T06:52:32.420Z,95531.77
2018-03-04T06:54:58.534Z,95533.20
2018-03-04T06:57:24.542Z,95536.57
2018-03-04T06:59:50.573Z,95533.95
2018-03-04T07:02:16.696Z,95539.67
2018-03-04T07:04:42.721Z,95541.21
2018-03-04T07:07:08.765Z,95544.45
2018-03-04T07:09:34.796Z,95545.91
2018-03-04T07:12:00.885Z,95548.84
2018-03-04T07:14:26.910Z,95551.97
2018-03-04T07:16:52.904Z,95552.20
2018-03-04T07:19:18.906Z,95554.39
2018-03-04T07:21:44.898Z,95550.77
2018-03-04T07:24:10.936Z,95558.27
2018-03-04T07:26:36.916Z,95549.06
2018-03-04T07:29:02.909Z,95557.05
2018-03-04T07:31:28.971Z,95555.50
2018-03-04T07:33:55.262Z,95552.41
2018-03-04T07:36:21.229Z,95555.22
2018-03-04T07:38:47.336Z,95550.42
2018-03-04T07:41:13.365Z,95556.87
2018-03-04T07:43:39.373Z,95556.22
2018-03-04T07:46:05.463Z,95555.13
2018-03-04T07:48:31.455Z,95555.50
2018-03-04T07:50:57.493Z,95564.95
2018-03-04T07:53:23.525Z,95563.98
2018-03-04T07:55:49.620Z,95560.61
2018-03-04T07:58:15.645Z,95558.24
2018-03-04T08:00:41.657Z,95562.50
2018-03-04T08:03:07.693Z,95553.45
2018-03-04T08:05:33.722Z,95546.54
2018-03-04T08:07:59.713Z,95556.85
2018-03-04T08:10:25.741Z,95561.84
2018-03-04T08:12:51.838Z,95559.25
2018-03-04T08:15:17.810Z,95555.27
2018-03-04T08:17:43.844Z,95553.45
2018-03-04T08:20:09.900Z,95544.80
2018-03-04T08:22:35.941Z,95506.58
2018-03-04T08:25:14.215Z,95554.69
2018-03-04T08:27:52.581Z,95553.53
2018-03-04T08:30:18.598Z,95554.24
2018-03-04T08:32:44.627Z,95550.99
2018-03-04T08:35:10.855Z,95552.59
2018-03-04T08:37:36.866Z,95548.20
2018-03-04T08:40:04.604Z,95548.28
2018-03-04T08:42:30.639Z,95551.06
2018-03-04T08:44:56.673Z,95551.38
2018-03-04T08:47:22.703Z,95550.80
2018-03-04T08:49:48.720Z,95550.58
2018-03-04T08:52:14.736Z,95532.19
2018-03-04T08:54:40.806Z,95524.71
2018-03-04T08:57:06.857Z,95530.41
2018-03-04T08:59:32.859Z,95536.23
2018-03-04T09:01:58.909Z,95532.71
2018-03-04T09:04:25.013Z,95534.87
2018-03-04T09:06:51.153Z,95534.92
2018-03-04T09:09:17.142Z,95538.95
2018-03-04T09:11:43.157Z,95539.38
2018-03-04T09:14:09.194Z,95534.84
2018-03-04T09:16:35.204Z,95531.33
2018-03-04T09:19:01.249Z,95530.55
2018-03-04T09:21:27.194Z,95530.12
2018-03-04T09:23:53.194Z,95529.77
2018-03-04T09:26:19.221Z,95532.33
2018-03-04T09:28:45.254Z,95537.64
2018-03-04T09:31:11.234Z,95543.23
2018-03-04T09:33:37.194Z,95538.62
2018-03-04T09:36:03.241Z,95540.01
2018-03-04T09:38:29.299Z,95542.09
2018-03-04T09:40:55.367Z,95540.75
2018-03-04T09:43:21.370Z,95541.21
2018-03-04T09:45:47.378Z,95545.67
2018-03-04T09:48:13.413Z,95546.23
2018-03-04T09:50:39.385Z,95546.94
2018-03-04T09:53:05.398Z,95542.95
2018-03-04T09:55:31.441Z,95536.33
2018-03-04T09:57:57.488Z,95540.28
2018-03-04T10:00:23.527Z,95533.97
2018-03-04T10:02:49.656Z,95536.18
2018-03-04T10:05:15.694Z,95539.88
2018-03-04T10:07:41.685Z,95528.97
2018-03-04T10:10:07.768Z,95528.69
2018-03-04T10:12:33.817Z,95539.23
2018-03-04T10:15:06.907Z,95535.79
2018-03-04T10:17:32.910Z,95530.84
2018-03-04T10:19:58.973Z,95520.41
2018-03-04T10:22:25.061Z,95518.84
2018-03-04T10:24:51.105Z,95525.94
2018-03-04T10:27:17.161Z,95522.50
2018-03-04T10:29:43.116Z,95522.55
2018-03-04T10:32:09.254Z,95508.50
2018-03-04T10:34:35.281Z,95502.33
2018-03-04T10:37:01.363Z,95496.06
2018-03-04T10:39:27.465Z,95491.06
2018-03-04T10:41:53.477Z,95475.91
2018-03-04T10:44:19.624Z,95476.47
2018-03-04T10:46:45.613Z,95480.64
2018-03-04T10:49:11.635Z,95481.81
2018-03-04T10:51:37.722Z,95483.98
2018-03-04T10:54:03.801Z,95480.98
2018-03-04T10:56:29.933Z,95486.98
2018-03-04T10:58:55.961Z,95480.77
2018-03-04T11:01:28.098Z,95473.52
2018-03-04T11:03:54.306Z,95469.17
2018-03-04T11:06:20.309Z,95463.29
2018-03-04T11:08:46.339Z,95474.84
2018-03-04T11:11:12.375Z,95488.17
2018-03-04T11:13:38.404Z,95487.06
2018-03-04T11:16:04.416Z,95490.45
2018-03-04T11:18:30.426Z,95494.86
2018-03-04T11:20:56.490Z,95503.47
2018-03-04T11:23:22.527Z,95502.96
2018-03-04T11:25:48.577Z,95496.33
2018-03-04T11:28:14.646Z,95492.42
2018-03-04T11:30:40.740Z,95473.58
2018-03-04T11:33:06.750Z,95465.89
2018-03-04T11:35:32.806Z,95473.08
2018-03-04T11:37:58.858Z,95483.55
2018-03-04T11:40:24.841Z,95481.09
2018-03-04T11:42:50.884Z,95466.94
2018-03-04T11:45:16.849Z,95449.31
2018-03-04T11:47:43.021Z,95449.36
2018-03-04T11:50:09.253Z,95444.34
2018-03-04T11:52:35.261Z,95460.05
2018-03-04T11:55:01.352Z,95456.16
2018-03-04T11:57:27.366Z,95444.57
2018-03-04T11:59:53.425Z,95438.23
2018-03-04T12:02:19.489Z,95436.08
2018-03-04T12:04:45.560Z,95438.75
2018-03-04T12:07:11.578Z,95445.16
2018-03-04T12:09:37.698Z,95436.70
2018-03-04T12:12:03.670Z,95429.40
2018-03-04T12:14:29.683Z,95430.19
2018-03-04T12:16:55.764Z,95435.73
2018-03-04T12:19:21.791Z,95438.16
2018-03-04T12:21:47.904Z,95429.94
2018-03-04T12:24:13.914Z,95430.11
2018-03-04T12:26:39.910Z,95426.65
2018-03-04T12:29:05.937Z,95423.38
2018-03-04T12:31:32.010Z,95415.69
2018-03-04T12:33:58.045Z,95410.60
2018-03-04T12:36:24.033Z,95414.34
2018-03-04T12:38:50.094Z,95403.24
2018-03-04T12:41:16.117Z,95402.02
2018-03-04T12:43:42.152Z,95398.02
2018-03-04T12:46:08.193Z,95392.23
2018-03-04T12:48:34.218Z,95383.00
2018-03-04T12:51:00.298Z,95376.58
2018-03-04T12:53:26.272Z,95375.95
2018-03-04T12:55:52.299Z,95373.28
2018-03-04T12:58:18.385Z,95372.75
2018-03-04T13:00:44.445Z,95368.66
2018-03-04T13:03:10.506Z,95371.24
2018-03-04T13:05:36.513Z,95372.09
2018-03-04T13:08:02.518Z,95369.91
2018-03-04T13:10:28.588Z,95366.52
2018-03-04T13:12:54.610Z,95360.52
2018-03-04T13:15:20.677Z,95367.20
2018-03-04T13:17:46.654Z,95365.43
2018-03-04T13:20:12.679Z,95373.78
2018-03-04T13:22:38.654Z,95365.98
2018-03-04T13:25:04.673Z,95363.80
2018-03-04T13:27:30.725Z,95362.17
2018-03-04T13:29:56.741Z,95366.53
2018-03-04T13:32:22.773Z,95371.77
2018-03-04T13:34:48.793Z,95368.23
2018-03-04T13:37:14.798Z,95368.91
2018-03-04T13:39:40.842Z,95369.70
2018-03-04T13:42:06.886Z,95365.80
2018-03-04T13:44:32.909Z,95361.44
2018-03-04T13:46:58.966Z,95356.12
2018-03-04T13:49:25.034Z,95354.42
2018-03-04T13:51:51.067Z,95353.19
2018-03-04T13:54:17.111Z,95358.86
2018-03-04T13:56:43.276Z,95352.08
2018-03-04T13:59:09.411Z,95346.63
2018-03-04T14:01:35.505Z,95346.53
2018-03-04T14:04:01.533Z,95343.13
2018-03-04T14:06:27.573Z,95334.58
2018-03-04T14:08:53.641Z,95338.04
2018-03-04T14:11:19.646Z,95325.88
2018-03-04T14:13:45.650Z,95328.77
2018-03-04T14:16:11.672Z,95326.11
2018-03-04T14:18:37.733Z,95323.73
2018-03-04T14:21:03.731Z,95327.34
2018-03-04T14:23:29.774Z,95321.55
2018-03-04T14:25:56.125Z,95325.22
2018-03-04T14:28:22.118Z,95323.58
2018-03-04T14:30:48.297Z,95314.57
2018-03-04T14:33:14.344Z,95309.58
2018-03-04T14:35:40.401Z,95298.78
2018-03-04T14:38:06.453Z,95303.25
2018-03-04T14:40:32.449Z,95303.17
2018-03-04T14:42:58.442Z,95292.00
2018-03-04T14:45:24.511Z,95291.40
2018-03-04T14:47:50.609Z,95274.27
2018-03-04T14:50:16.699Z,95286.97
2018-03-04T14:52:45.783Z,95280.20
2018-03-04T14:55:11.801Z,95284.34
2018-03-04T14:57:37.849Z,95277.70
2018-03-04T15:00:03.808Z,95268.72
2018-03-04T15:02:29.841Z,95281.69
2018-03-04T15:04:55.905Z,95279.22
2018-03-04T15:07:21.935Z,95271.38
2018-03-04T15:09:47.934Z,95269.75
2018-03-04T15:12:13.973Z,95267.51
2018-03-04T15:14:40.024Z,95270.36
2018-03-04T15:17:06.034Z,95268.91
2018-03-04T15:19:32.113Z,95268.91
2018-03-04T15:21:58.182Z,95270.17
2018-03-04T15:24:24.368Z,95274.05
2018-03-04T15:26:50.391Z,95274.56
2018-03-04T15:29:16.319Z,95267.64
2018-03-04T15:31:42.448Z,95272.39
2018-03-04T15:34:08.459Z,95275.59
2018-03-04T15:39:07.406Z,95268.33
2018-03-04T15:41:33.452Z,95274.66
2018-03-04T15:43:59.471Z,95275.79
2018-03-04T15:46:25.509Z,95276.47
2018-03-04T15:48:51.592Z,95275.59
2018-03-04T15:51:17.619Z,95273.20
2018-03-04T15:53:43.654Z,95276.30
2018-03-04T15:56:09.718Z,95273.09
2018-03-04T15:58:35.694Z,95265.03
2018-03-04T16:01:01.746Z,95273.88
2018-03-04T16:03:27.770Z,95274.11
2018-03-04T16:05:53.749Z,95278.58
2018-03-04T16:08:19.800Z,95280.33
2018-03-04T16:10:45.805Z,95275.27
2018-03-04T16:13:11.882Z,95266.74
2018-03-04T16:15:37.998Z,95266.41
2018-03-04T16:18:03.998Z,95256.73
2018-03-04T16:20:30.017Z,95257.12
2018-03-04T16:22:56.041Z,95258.55
2018-03-04T16:25:22.117Z,95248.87
2018-03-04T16:27:48.131Z,95250.16
2018-03-04T16:30:14.157Z,95248.62
2018-03-04T16:32:40.241Z,95255.50
2018-03-04T16:35:06.362Z,95249.44
2018-03-04T16:37:32.477Z,95239.83
2018-03-04T16:39:58.477Z,95225.62
2018-03-04T16:42:24.552Z,95224.70
2018-03-04T16:44:50.630Z,95229.70
2018-03-04T16:47:16.681Z,95228.69
2018-03-04T16:49:42.713Z,95222.37
2018-03-04T16:52:08.806Z,95222.21
2018-03-04T16:54:34.754Z,95221.90
2018-03-04T16:57:00.754Z,95226.89
2018-03-04T16:59:26.768Z,95220.14
2018-03-04T17:01:52.967Z,95233.44
2018-03-04T17:04:18.993Z,95231.73
2018-03-04T17:06:45.050Z,95227.88
2018-03-04T17:09:11.097Z,95225.26
2018-03-04T17:11:37.113Z,95218.70
2018-03-04T17:14:03.234Z,95210.77
2018-03-04T17:16:29.416Z,95202.52
2018-03-04T17:18:55.430Z,95204.28
2018-03-04T17:21:21.589Z,95206.59
2018-03-04T17:23:47.674Z,95205.33
2018-03-04T17:26:13.760Z,95209.23
2018-03-04T17:28:39.783Z,95212.38
2018-03-04T17:31:05.819Z,95211.95
2018-03-04T17:33:31.902Z,95216.69
2018-03-04T17:35:57.849Z,95219.59
2018-03-04T17:38:23.846Z,95213.27
2018-03-04T17:40:49.965Z,95212.05
2018-03-04T17:43:15.946Z,95214.14
2018-03-04T17:45:41.962Z,95206.39
2018-03-04T17:48:07.979Z,95200.69
2018-03-04T17:50:33.977Z,95192.05
2018-03-04T17:53:00.016Z,95198.86
2018-03-04T17:55:26.125Z,95195.20
2018-03-04T17:57:52.216Z,95194.19
2018-03-04T18:00:18.360Z,95188.80
2018-03-04T18:02:44.616Z,95199.33
2018-03-04T18:05:10.616Z,95198.00
2018-03-04T18:07:36.906Z,95194.09
2018-03-04T18:10:03.167Z,95194.80
2018-03-04T18:12:29.238Z,95190.91
2018-03-04T18:14:55.337Z,95190.74
2018-03-04T18:17:21.388Z,95193.41
2018-03-04T18:19:47.429Z,95198.70
2018-03-04T18:22:13.460Z,95202.59
2018-03-04T18:24:39.601Z,95203.08
2018-03-04T18:27:05.669Z,95201.48
2018-03-04T18:29:31.772Z,95197.34
2018-03-04T18:31:57.759Z,95199.23
2018-03-04T18:34:23.808Z,95193.44
2018-03-04T18:36:49.853Z,95199.34
2018-03-04T18:39:15.873Z,95197.23
2018-03-04T18:41:41.906Z,95194.34
2018-03-04T18:44:07.977Z,95203.20
2018-03-04T18:46:34.278Z,95197.97
2018-03-04T18:49:01.341Z,95210.12
2018-03-04T18:51:27.426Z,95218.28
2018-03-04T18:53:53.511Z,95226.67
2018-03-04T18:56:19.606Z,95220.52
2018-03-04T18:58:45.664Z,95208.44
2018-03-04T19:01:11.688Z,95211.37
2018-03-04T19:03:37.802Z,95212.00
2018-03-04T19:06:03.820Z,95205.73
2018-03-04T19:08:29.869Z,95197.89
2018-03-04T19:10:55.929Z,95204.28
2018-03-04T19:13:21.981Z,95206.83
2018-03-04T19:15:48.139Z,95210.17
2018-03-04T19:18:14.169Z,95200.67
2018-03-04T19:20:40.260Z,95201.80
2018-03-04T19:23:06.314Z,95196.27
2018-03-04T19:25:32.341Z,95196.58
2018-03-04T19:27:58.360Z,95193.69
2018-03-04T19:30:24.938Z,95190.04
2018-03-04T19:32:51.020Z,95190.55
2018-03-04T19:35:17.036Z,95186.03
2018-03-04T19:37:43.103Z,95177.36
2018-03-04T19:40:09.134Z,95176.85
2018-03-04T19:42:38.847Z,95179.40
2018-03-04T19:45:04.973Z,95185.98
2018-03-04T19:47:31.096Z,95193.48
2018-03-04T19:49:57.195Z,95191.91
2018-03-04T19:52:23.214Z,95190.98
2018-03-04T19:54:49.257Z,95191.90
2018-03-04T19:57:15.241Z,95186.24
2018-03-04T19:59:41.295Z,95189.23
2018-03-04T20:02:07.238Z,95190.09
2018-03-04T20:04:33.273Z,95194.34
2018-03-04T20:06:59.386Z,95190.59
2018-03-04T20:09:25.395Z,95185.52
2018-03-04T20:11:51.444Z,95182.54
2018-03-04T20:14:17.490Z,95182.96
2018-03-04T20:16:43.649Z,95180.58
2018-03-04T20:19:09.738Z,95176.67
2018-03-04T20:21:35.884Z,95183.82
2018-03-04T20:24:01.983Z,95190.28
2018-03-04T20:26:28.009Z,95198.66
2018-03-04T20:28:54.105Z,95193.94
2018-03-04T20:31:20.209Z,95203.33
2018-03-04T20:33:46.316Z,95214.98
2018-03-04T20:36:12.427Z,95206.33
2018-03-04T20:38:38.498Z,95210.08
2018-03-04T20:41:04.641Z,95190.27
2018-03-04T20:43:30.753Z,95183.73
2018-03-04T20:45:56.911Z,95174.53
2018-03-04T20:48:23.024Z,95174.98
2018-03-04T20:50:49.094Z,95187.19
2018-03-04T20:53:15.094Z,95185.77
2018-03-04T20:55:41.162Z,95184.92
2018-03-04T20:58:07.229Z,95172.33
2018-03-04T21:00:33.238Z,95164.28
2018-03-04T21:02:59.249Z,95163.45
2018-03-04T21:05:25.273Z,95160.20
2018-03-04T21:07:51.368Z,95166.70
2018-03-04T21:10:17.340Z,95157.87
2018-03-04T21:12:43.388Z,95152.11
2018-03-04T21:15:09.450Z,95159.23
2018-03-04T21:17:35.493Z,95170.78
2018-03-04T21:20:01.544Z,95174.39
2018-03-04T21:22:27.624Z,95179.53
2018-03-04T21:24:53.713Z,95186.77
2018-03-04T21:27:19.734Z,95171.95
2018-03-04T21:29:45.786Z,95170.95
2018-03-04T21:32:11.800Z,95172.27
2018-03-04T21:34:37.865Z,95177.14
2018-03-04T21:37:03.916Z,95179.83
2018-03-04T21:39:29.993Z,95174.98
2018-03-04T21:41:56.027Z,95169.50
2018-03-04T21:44:22.029Z,95163.09
2018-03-04T21:46:48.069Z,95163.48
2018-03-04T21:49:14.117Z,95164.55
2018-03-04T21:51:40.093Z,95154.72
2018-03-04T21:54:06.152Z,95151.38
2018-03-04T21:56:32.183Z,95145.27
2018-03-04T21:58:58.233Z,95149.55
2018-03-04T22:01:24.297Z,95152.13
2018-03-04T22:03:50.337Z,95152.22
2018-03-04T22:06:16.405Z,95155.09
2018-03-04T22:08:42.402Z,95161.59
2018-03-04T22:11:08.482Z,95162.78
2018-03-04T22:13:34.529Z,95165.33
2018-03-04T22:16:00.578Z,95171.59
2018-03-04T22:18:26.661Z,95172.56
2018-03-04T22:20:52.629Z,95165.59
2018-03-04T22:23:18.686Z,95166.42
2018-03-04T22:25:44.759Z,95169.94
2018-03-04T22:28:10.721Z,95166.81
2018-03-04T22:30:36.712Z,95169.85
2018-03-04T22:33:02.754Z,95171.77
2018-03-04T22:35:28.812Z,95177.71
2018-03-04T22:37:54.921Z,95180.70
2018-03-04T22:40:20.921Z,95184.69
2018-03-04T22:42:46.993Z,95190.98
2018-03-04T22:45:13.013Z,95191.89
2018-03-04T22:47:39.059Z,95190.50
2018-03-04T22:50:05.096Z,95184.11
2018-03-04T22:52:31.162Z,95189.55
2018-03-04T22:54:57.120Z,95183.41
2018-03-04T22:57:23.168Z,95195.20
2018-03-04T22:59:49.218Z,95194.72
2018-03-04T23:02:15.214Z,95199.63
2018-03-04T23:04:41.204Z,95195.58
2018-03-04T23:07:07.256Z,95199.37
2018-03-04T23:09:33.299Z,95198.23
2018-03-04T23:11:59.353Z,95190.66
2018-03-04T23:14:25.423Z,95192.20
2018-03-04T23:16:51.525Z,95196.12
2018-03-04T23:19:17.534Z,95202.36
2018-03-04T23:21:43.605Z,95201.75
2018-03-04T23:24:09.650Z,95201.61
2018-03-04T23:26:35.662Z,95205.36
2018-03-04T23:29:01.730Z,95199.37
2018-03-04T23:31:27.736Z,95211.27
2018-03-04T23:33:53.818Z,95213.09
2018-03-04T23:36:19.810Z,95220.70
2018-03-04T23:38:45.864Z,95234.22
2018-03-04T23:41:11.905Z,95242.08
2018-03-04T23:43:37.925Z,95243.80
2018-03-04T23:46:03.971Z,95249.83
2018-03-04T23:48:30.011Z,95243.66
2018-03-04T23:50:56.046Z,95242.45
2018-03-04T23:53:22.085Z,95223.56
2018-03-04T23:55:48.686Z,95200.73
2018-03-04T23:58:14.726Z,95148.42
